Ruby, AK (99768)

9:27 AM AKST on December 04, 2016 (GMT -0900)
Ruby | | Change Station

Elev 653 ft 64.73 °N, 155.47 °W | Updated 31 minutes ago

Clear
Clear
-19 °F
Feels Like -19 °F
N
0
Wind Variable Wind from North

Today
High -- | Low -- °F
--% Chance of Precip.
Yesterday
High -- | Low -- °F
Precip. -- in
Pressure 30.78 in
Visibility 10.0 miles
Clouds Clear
Dew Point -26 °F
Humidity 70%
Rainfall 0.00 in
Snow Depth Not available.
10:55 AM 3:33 PM
Waxing Crescent, 24% visible
METAR PARY 041756Z AUTO 00000KT 10SM CLR M28/M32 A3067 RMK AO2 SLP422 T12831322 11267 21306 53010 FZRANO
Pressure 30.78 in
Visibility 10.0 miles
Clouds Clear
Dew Point -26 °F
Humidity 70%
Rainfall 0.00 in
Snow Depth Not available.
10:55 AM 3:33 PM
Waxing Crescent, 24% visible
METAR PARY 041756Z AUTO 00000KT 10SM CLR M28/M32 A3067 RMK AO2 SLP422 T12831322 11267 21306 53010 FZRANO

10-Day Weather Forecast

Almanac

Astronomy

Dec. 04, 2016 Rise Set
Actual Time
Civil Twilight
Nautical Twilight
Astronomical Twilight
Moon
Length of Visible Light
Length of Day
Tomorrow will be .
, % of the Moon is Illuminated

Today's Extremes

State Highs State Lows

Community

WunderPhotos

Upload Photos

1,955,639 photos uploaded!

WunderBlog® & News

Nearby

Air Quality

  Air Quality AQ Index Pollutant
Not available.

Snow Depth

Station Depth Elevation

Earthquake Activity

City Distance Mag. Time & Date
Minimum magnitude displayed is 2.5.

Coastal Water Temperatures

Place Temperature

Stations

Nearby Weather Stations

Station Location Temp. Windchill Dew Point Humidity Wind Precip. Elev Updated Type
                   

Watches & Warnings

There are currently no watches in effect.